sensor_id;sensor_type;location;lat;lon;timestamp;P1;durP1;ratioP1;P2;durP2;ratioP2
48189;SDS011;33980;47.436;18.926;2022-07-23T00:00:16;3.25;;;1.80;;
48189;SDS011;33980;47.436;18.926;2022-07-23T00:02:45;3.37;;;1.98;;
48189;SDS011;33980;47.436;18.926;2022-07-23T00:05:14;3.22;;;1.73;;
48189;SDS011;33980;47.436;18.926;2022-07-23T00:07:47;8.30;;;2.10;;
48189;SDS011;33980;47.436;18.926;2022-07-23T00:10:16;3.90;;;2.00;;
48189;SDS011;33980;47.436;18.926;2022-07-23T00:12:47;3.70;;;2.20;;
48189;SDS011;33980;47.436;18.926;2022-07-23T00:15:21;4.60;;;2.20;;
48189;SDS011;33980;47.436;18.926;2022-07-23T00:17:50;6.72;;;2.00;;
48189;SDS011;33980;47.436;18.926;2022-07-23T00:20:20;6.47;;;2.53;;
48189;SDS011;33980;47.436;18.926;2022-07-23T00:22:54;3.25;;;1.67;;
48189;SDS011;33980;47.436;18.926;2022-07-23T00:25:23;4.20;;;1.90;;
48189;SDS011;33980;47.436;18.926;2022-07-23T00:27:59;3.92;;;2.03;;
48189;SDS011;33980;47.436;18.926;2022-07-23T00:30:36;2.55;;;1.33;;
48189;SDS011;33980;47.436;18.926;2022-07-23T00:33:06;4.93;;;2.25;;
48189;SDS011;33980;47.436;18.926;2022-07-23T00:35:37;3.75;;;1.77;;
48189;SDS011;33980;47.436;18.926;2022-07-23T00:38:09;4.50;;;1.87;;
48189;SDS011;33980;47.436;18.926;2022-07-23T00:40:38;4.60;;;2.12;;
48189;SDS011;33980;47.436;18.926;2022-07-23T00:43:11;4.95;;;2.08;;
48189;SDS011;33980;47.436;18.926;2022-07-23T00:45:40;3.42;;;1.92;;
48189;SDS011;33980;47.436;18.926;2022-07-23T00:48:10;2.92;;;1.52;;
48189;SDS011;33980;47.436;18.926;2022-07-23T00:50:40;3.00;;;1.67;;
48189;SDS011;33980;47.436;18.926;2022-07-23T00:53:11;3.87;;;1.85;;
48189;SDS011;33980;47.436;18.926;2022-07-23T00:55:41;3.28;;;1.80;;
48189;SDS011;33980;47.436;18.926;2022-07-23T00:58:13;3.47;;;2.03;;
48189;SDS011;33980;47.436;18.926;2022-07-23T01:00:43;4.25;;;2.25;;
48189;SDS011;33980;47.436;18.926;2022-07-23T01:03:13;3.75;;;2.10;;
48189;SDS011;33980;47.436;18.926;2022-07-23T01:05:45;3.25;;;1.90;;
48189;SDS011;33980;47.436;18.926;2022-07-23T01:08:14;3.60;;;1.90;;
48189;SDS011;33980;47.436;18.926;2022-07-23T01:10:49;4.40;;;1.83;;
48189;SDS011;33980;47.436;18.926;2022-07-23T01:13:26;4.00;;;1.85;;
48189;SDS011;33980;47.436;18.926;2022-07-23T01:15:55;3.67;;;1.98;;
48189;SDS011;33980;47.436;18.926;2022-07-23T01:18:27;3.58;;;1.60;;
48189;SDS011;33980;47.436;18.926;2022-07-23T01:20:56;3.95;;;1.80;;
48189;SDS011;33980;47.436;18.926;2022-07-23T01:23:30;3.92;;;1.62;;
48189;SDS011;33980;47.436;18.926;2022-07-23T01:25:59;5.12;;;2.20;;
48189;SDS011;33980;47.436;18.926;2022-07-23T01:28:37;2.83;;;1.50;;
48189;SDS011;33980;47.436;18.926;2022-07-23T01:31:11;2.60;;;1.50;;
48189;SDS011;33980;47.436;18.926;2022-07-23T01:33:40;4.28;;;2.03;;
48189;SDS011;33980;47.436;18.926;2022-07-23T01:36:15;3.22;;;1.60;;
48189;SDS011;33980;47.436;18.926;2022-07-23T01:38:47;3.58;;;1.90;;
48189;SDS011;33980;47.436;18.926;2022-07-23T01:41:19;4.75;;;2.10;;
48189;SDS011;33980;47.436;18.926;2022-07-23T01:43:48;4.72;;;2.03;;
48189;SDS011;33980;47.436;18.926;2022-07-23T01:46:19;6.50;;;2.10;;
48189;SDS011;33980;47.436;18.926;2022-07-23T01:48:48;3.05;;;1.73;;
48189;SDS011;33980;47.436;18.926;2022-07-23T01:51:21;4.15;;;2.47;;
48189;SDS011;33980;47.436;18.926;2022-07-23T01:53:53;3.65;;;1.83;;
48189;SDS011;33980;47.436;18.926;2022-07-23T01:56:22;3.35;;;2.08;;
48189;SDS011;33980;47.436;18.926;2022-07-23T01:58:51;3.85;;;2.20;;
48189;SDS011;33980;47.436;18.926;2022-07-23T02:01:24;5.35;;;2.37;;
48189;SDS011;33980;47.436;18.926;2022-07-23T02:03:56;4.85;;;2.47;;
48189;SDS011;33980;47.436;18.926;2022-07-23T02:06:25;4.50;;;2.15;;
48189;SDS011;33980;47.436;18.926;2022-07-23T02:08:55;4.70;;;2.97;;
48189;SDS011;33980;47.436;18.926;2022-07-23T02:13:53;5.07;;;2.35;;
48189;SDS011;33980;47.436;18.926;2022-07-23T02:16:26;5.62;;;2.65;;
48189;SDS011;33980;47.436;18.926;2022-07-23T02:18:59;3.47;;;1.90;;
48189;SDS011;33980;47.436;18.926;2022-07-23T02:24:02;4.43;;;2.45;;
48189;SDS011;33980;47.436;18.926;2022-07-23T02:26:34;5.07;;;2.22;;
48189;SDS011;33980;47.436;18.926;2022-07-23T02:29:12;3.65;;;2.05;;
48189;SDS011;33980;47.436;18.926;2022-07-23T02:31:42;3.85;;;2.10;;
48189;SDS011;33980;47.436;18.926;2022-07-23T02:34:15;3.33;;;2.20;;
48189;SDS011;33980;47.436;18.926;2022-07-23T02:36:43;3.58;;;1.90;;
48189;SDS011;33980;47.436;18.926;2022-07-23T02:39:16;4.20;;;1.92;;
48189;SDS011;33980;47.436;18.926;2022-07-23T02:41:48;3.73;;;2.23;;
48189;SDS011;33980;47.436;18.926;2022-07-23T02:44:17;4.45;;;2.17;;
48189;SDS011;33980;47.436;18.926;2022-07-23T02:46:47;3.08;;;1.83;;
48189;SDS011;33980;47.436;18.926;2022-07-23T02:49:19;4.70;;;2.37;;
48189;SDS011;33980;47.436;18.926;2022-07-23T02:51:49;3.17;;;1.90;;
48189;SDS011;33980;47.436;18.926;2022-07-23T02:54:19;4.45;;;2.10;;
48189;SDS011;33980;47.436;18.926;2022-07-23T02:56:49;6.00;;;2.45;;
48189;SDS011;33980;47.436;18.926;2022-07-23T03:01:49;3.72;;;2.03;;
48189;SDS011;33980;47.436;18.926;2022-07-23T03:04:23;5.75;;;2.37;;
48189;SDS011;33980;47.436;18.926;2022-07-23T03:06:52;3.97;;;2.08;;
48189;SDS011;33980;47.436;18.926;2022-07-23T03:09:25;5.47;;;2.47;;
48189;SDS011;33980;47.436;18.926;2022-07-23T03:11:54;5.27;;;2.73;;
48189;SDS011;33980;47.436;18.926;2022-07-23T03:14:24;4.12;;;2.08;;
48189;SDS011;33980;47.436;18.926;2022-07-23T03:16:55;4.03;;;1.98;;
48189;SDS011;33980;47.436;18.926;2022-07-23T03:19:28;5.28;;;2.67;;
48189;SDS011;33980;47.436;18.926;2022-07-23T03:21:56;6.78;;;1.95;;
48189;SDS011;33980;47.436;18.926;2022-07-23T03:24:32;5.62;;;2.35;;
48189;SDS011;33980;47.436;18.926;2022-07-23T03:27:32;6.03;;;2.30;;
48189;SDS011;33980;47.436;18.926;2022-07-23T03:32:37;4.43;;;2.20;;
48189;SDS011;33980;47.436;18.926;2022-07-23T03:35:07;4.60;;;2.35;;
48189;SDS011;33980;47.436;18.926;2022-07-23T03:37:42;4.43;;;2.12;;
48189;SDS011;33980;47.436;18.926;2022-07-23T03:40:17;4.87;;;2.22;;
48189;SDS011;33980;47.436;18.926;2022-07-23T03:42:48;4.10;;;1.83;;
48189;SDS011;33980;47.436;18.926;2022-07-23T03:45:20;4.93;;;2.33;;
48189;SDS011;33980;47.436;18.926;2022-07-23T03:47:49;4.95;;;2.35;;
48189;SDS011;33980;47.436;18.926;2022-07-23T03:50:21;5.60;;;2.17;;
48189;SDS011;33980;47.436;18.926;2022-07-23T03:52:51;4.00;;;2.00;;
48189;SDS011;33980;47.436;18.926;2022-07-23T03:55:24;4.57;;;2.12;;
48189;SDS011;33980;47.436;18.926;2022-07-23T03:57:53;4.00;;;2.30;;
48189;SDS011;33980;47.436;18.926;2022-07-23T04:00:25;3.28;;;2.05;;
48189;SDS011;33980;47.436;18.926;2022-07-23T04:02:54;3.97;;;1.92;;
48189;SDS011;33980;47.436;18.926;2022-07-23T04:05:26;7.15;;;2.47;;
48189;SDS011;33980;47.436;18.926;2022-07-23T04:07:56;4.37;;;2.20;;
48189;SDS011;33980;47.436;18.926;2022-07-23T04:10:26;4.65;;;2.45;;
48189;SDS011;33980;47.436;18.926;2022-07-23T04:12:56;3.00;;;1.90;;
48189;SDS011;33980;47.436;18.926;2022-07-23T04:15:27;4.47;;;2.17;;
48189;SDS011;33980;47.436;18.926;2022-07-23T04:17:57;3.90;;;2.17;;
48189;SDS011;33980;47.436;18.926;2022-07-23T04:20:32;4.15;;;1.98;;
48189;SDS011;33980;47.436;18.926;2022-07-23T04:23:10;4.95;;;2.28;;
48189;SDS011;33980;47.436;18.926;2022-07-23T04:25:49;3.40;;;1.90;;
48189;SDS011;33980;47.436;18.926;2022-07-23T04:28:18;3.28;;;1.87;;
48189;SDS011;33980;47.436;18.926;2022-07-23T04:30:50;4.70;;;2.40;;
48189;SDS011;33980;47.436;18.926;2022-07-23T04:33:20;4.90;;;2.62;;
48189;SDS011;33980;47.436;18.926;2022-07-23T04:35:56;4.40;;;2.30;;
48189;SDS011;33980;47.436;18.926;2022-07-23T04:38:28;3.85;;;2.35;;
48189;SDS011;33980;47.436;18.926;2022-07-23T04:40:59;6.93;;;2.03;;
48189;SDS011;33980;47.436;18.926;2022-07-23T04:43:31;6.82;;;2.47;;
48189;SDS011;33980;47.436;18.926;2022-07-23T04:46:00;4.07;;;2.08;;
48189;SDS011;33980;47.436;18.926;2022-07-23T04:48:32;5.15;;;2.70;;
48189;SDS011;33980;47.436;18.926;2022-07-23T04:51:03;3.08;;;1.70;;
48189;SDS011;33980;47.436;18.926;2022-07-23T04:53:34;2.97;;;2.00;;
48189;SDS011;33980;47.436;18.926;2022-07-23T04:56:04;4.80;;;2.20;;
48189;SDS011;33980;47.436;18.926;2022-07-23T04:58:33;3.22;;;2.00;;
48189;SDS011;33980;47.436;18.926;2022-07-23T05:01:04;3.90;;;1.95;;
48189;SDS011;33980;47.436;18.926;2022-07-23T05:03:34;7.07;;;2.40;;
48189;SDS011;33980;47.436;18.926;2022-07-23T05:06:04;2.95;;;1.60;;
48189;SDS011;33980;47.436;18.926;2022-07-23T05:11:10;5.72;;;2.15;;
48189;SDS011;33980;47.436;18.926;2022-07-23T05:13:42;5.20;;;2.40;;
48189;SDS011;33980;47.436;18.926;2022-07-23T05:16:11;2.80;;;1.62;;
48189;SDS011;33980;47.436;18.926;2022-07-23T05:18:39;4.47;;;1.83;;
48189;SDS011;33980;47.436;18.926;2022-07-23T05:21:09;3.55;;;1.62;;
48189;SDS011;33980;47.436;18.926;2022-07-23T05:23:38;4.03;;;1.62;;
48189;SDS011;33980;47.436;18.926;2022-07-23T05:26:12;4.12;;;2.37;;
48189;SDS011;33980;47.436;18.926;2022-07-23T05:28:41;4.60;;;2.12;;
48189;SDS011;33980;47.436;18.926;2022-07-23T05:31:17;4.97;;;1.73;;
48189;SDS011;33980;47.436;18.926;2022-07-23T05:33:50;5.43;;;1.90;;
48189;SDS011;33980;47.436;18.926;2022-07-23T05:36:20;3.85;;;1.73;;
48189;SDS011;33980;47.436;18.926;2022-07-23T05:38:57;2.83;;;1.55;;
48189;SDS011;33980;47.436;18.926;2022-07-23T05:41:30;5.43;;;2.30;;
48189;SDS011;33980;47.436;18.926;2022-07-23T05:43:59;3.45;;;1.98;;
48189;SDS011;33980;47.436;18.926;2022-07-23T05:46:29;10.90;;;2.20;;
48189;SDS011;33980;47.436;18.926;2022-07-23T05:49:01;4.12;;;2.20;;
48189;SDS011;33980;47.436;18.926;2022-07-23T05:51:38;12.50;;;2.67;;
48189;SDS011;33980;47.436;18.926;2022-07-23T05:54:06;3.15;;;2.12;;
48189;SDS011;33980;47.436;18.926;2022-07-23T05:56:43;5.78;;;2.20;;
48189;SDS011;33980;47.436;18.926;2022-07-23T05:59:12;4.22;;;1.75;;
48189;SDS011;33980;47.436;18.926;2022-07-23T06:01:42;5.25;;;2.90;;
48189;SDS011;33980;47.436;18.926;2022-07-23T06:04:14;2.65;;;1.75;;
48189;SDS011;33980;47.436;18.926;2022-07-23T06:06:48;3.05;;;1.77;;
48189;SDS011;33980;47.436;18.926;2022-07-23T06:09:17;5.45;;;2.10;;
48189;SDS011;33980;47.436;18.926;2022-07-23T06:11:47;3.40;;;1.90;;
48189;SDS011;33980;47.436;18.926;2022-07-23T06:14:16;5.30;;;2.25;;
48189;SDS011;33980;47.436;18.926;2022-07-23T06:16:48;7.72;;;2.03;;
48189;SDS011;33980;47.436;18.926;2022-07-23T06:19:17;5.40;;;2.30;;
48189;SDS011;33980;47.436;18.926;2022-07-23T06:21:49;3.30;;;1.77;;
48189;SDS011;33980;47.436;18.926;2022-07-23T06:24:18;3.28;;;1.90;;
48189;SDS011;33980;47.436;18.926;2022-07-23T06:26:52;3.28;;;2.15;;
48189;SDS011;33980;47.436;18.926;2022-07-23T06:29:21;2.70;;;1.65;;
48189;SDS011;33980;47.436;18.926;2022-07-23T06:36:55;2.60;;;1.67;;
48189;SDS011;33980;47.436;18.926;2022-07-23T06:39:26;3.42;;;2.00;;
48189;SDS011;33980;47.436;18.926;2022-07-23T06:41:56;4.43;;;2.10;;
48189;SDS011;33980;47.436;18.926;2022-07-23T06:44:35;5.72;;;2.33;;
48189;SDS011;33980;47.436;18.926;2022-07-23T06:47:07;3.40;;;1.92;;
48189;SDS011;33980;47.436;18.926;2022-07-23T06:49:38;4.35;;;1.70;;
48189;SDS011;33980;47.436;18.926;2022-07-23T06:52:11;5.67;;;2.30;;
48189;SDS011;33980;47.436;18.926;2022-07-23T06:54:40;6.75;;;2.37;;
48189;SDS011;33980;47.436;18.926;2022-07-23T06:57:10;5.05;;;1.77;;
48189;SDS011;33980;47.436;18.926;2022-07-23T06:59:43;5.53;;;2.33;;
48189;SDS011;33980;47.436;18.926;2022-07-23T07:02:12;4.50;;;2.25;;
48189;SDS011;33980;47.436;18.926;2022-07-23T07:04:42;3.05;;;1.75;;
48189;SDS011;33980;47.436;18.926;2022-07-23T07:07:14;3.45;;;1.83;;
48189;SDS011;33980;47.436;18.926;2022-07-23T07:09:43;4.00;;;2.30;;
48189;SDS011;33980;47.436;18.926;2022-07-23T07:12:18;5.65;;;2.03;;
48189;SDS011;33980;47.436;18.926;2022-07-23T07:14:47;3.03;;;1.90;;
48189;SDS011;33980;47.436;18.926;2022-07-23T07:17:16;5.15;;;1.95;;
48189;SDS011;33980;47.436;18.926;2022-07-23T07:19:47;5.53;;;2.42;;
48189;SDS011;33980;47.436;18.926;2022-07-23T07:22:16;4.05;;;2.00;;
48189;SDS011;33980;47.436;18.926;2022-07-23T07:24:48;3.80;;;1.73;;
48189;SDS011;33980;47.436;18.926;2022-07-23T07:27:20;4.37;;;2.37;;
48189;SDS011;33980;47.436;18.926;2022-07-23T07:29:50;3.67;;;1.73;;
48189;SDS011;33980;47.436;18.926;2022-07-23T07:32:21;4.05;;;1.80;;
48189;SDS011;33980;47.436;18.926;2022-07-23T07:35:13;3.50;;;1.75;;
48189;SDS011;33980;47.436;18.926;2022-07-23T07:37:42;9.02;;;2.65;;
48189;SDS011;33980;47.436;18.926;2022-07-23T07:40:16;4.62;;;2.58;;
48189;SDS011;33980;47.436;18.926;2022-07-23T07:42:50;3.33;;;1.90;;
48189;SDS011;33980;47.436;18.926;2022-07-23T07:45:20;4.28;;;2.08;;
48189;SDS011;33980;47.436;18.926;2022-07-23T07:47:52;3.95;;;2.05;;
48189;SDS011;33980;47.436;18.926;2022-07-23T07:50:22;2.37;;;1.48;;
48189;SDS011;33980;47.436;18.926;2022-07-23T07:52:53;7.10;;;2.12;;
48189;SDS011;33980;47.436;18.926;2022-07-23T07:55:22;3.70;;;1.92;;
48189;SDS011;33980;47.436;18.926;2022-07-23T07:57:53;3.60;;;1.70;;
48189;SDS011;33980;47.436;18.926;2022-07-23T08:00:22;3.12;;;1.65;;
48189;SDS011;33980;47.436;18.926;2022-07-23T08:02:52;5.97;;;1.75;;
48189;SDS011;33980;47.436;18.926;2022-07-23T08:05:26;3.92;;;2.17;;
48189;SDS011;33980;47.436;18.926;2022-07-23T08:08:05;3.62;;;2.17;;
48189;SDS011;33980;47.436;18.926;2022-07-23T08:10:34;2.80;;;2.20;;
48189;SDS011;33980;47.436;18.926;2022-07-23T08:13:06;3.83;;;1.98;;
48189;SDS011;33980;47.436;18.926;2022-07-23T08:15:35;4.10;;;1.55;;
48189;SDS011;33980;47.436;18.926;2022-07-23T08:18:10;4.10;;;1.98;;
48189;SDS011;33980;47.436;18.926;2022-07-23T08:20:40;3.75;;;1.90;;
48189;SDS011;33980;47.436;18.926;2022-07-23T08:23:09;4.25;;;1.85;;
48189;SDS011;33980;47.436;18.926;2022-07-23T08:25:39;3.08;;;1.55;;
48189;SDS011;33980;47.436;18.926;2022-07-23T08:28:11;2.37;;;1.48;;
48189;SDS011;33980;47.436;18.926;2022-07-23T08:30:45;2.65;;;1.40;;
48189;SDS011;33980;47.436;18.926;2022-07-23T08:33:14;3.35;;;1.70;;
48189;SDS011;33980;47.436;18.926;2022-07-23T08:36:00;3.42;;;1.45;;
48189;SDS011;33980;47.436;18.926;2022-07-23T08:38:34;5.80;;;2.10;;
48189;SDS011;33980;47.436;18.926;2022-07-23T08:43:39;3.58;;;1.60;;
48189;SDS011;33980;47.436;18.926;2022-07-23T08:46:10;3.03;;;1.73;;
48189;SDS011;33980;47.436;18.926;2022-07-23T08:48:42;4.50;;;1.45;;
48189;SDS011;33980;47.436;18.926;2022-07-23T08:51:11;5.25;;;1.83;;
48189;SDS011;33980;47.436;18.926;2022-07-23T08:53:41;4.47;;;1.90;;
48189;SDS011;33980;47.436;18.926;2022-07-23T08:56:09;2.80;;;1.45;;
48189;SDS011;33980;47.436;18.926;2022-07-23T08:58:43;4.00;;;1.33;;
48189;SDS011;33980;47.436;18.926;2022-07-23T09:01:14;4.37;;;1.52;;
48189;SDS011;33980;47.436;18.926;2022-07-23T09:03:43;3.35;;;1.50;;
48189;SDS011;33980;47.436;18.926;2022-07-23T09:06:13;5.03;;;1.97;;
48189;SDS011;33980;47.436;18.926;2022-07-23T09:08:45;4.00;;;2.00;;
48189;SDS011;33980;47.436;18.926;2022-07-23T09:11:15;4.87;;;1.53;;
48189;SDS011;33980;47.436;18.926;2022-07-23T09:13:48;5.62;;;2.22;;
48189;SDS011;33980;47.436;18.926;2022-07-23T09:16:17;5.18;;;2.35;;
48189;SDS011;33980;47.436;18.926;2022-07-23T09:18:53;2.83;;;1.45;;
48189;SDS011;33980;47.436;18.926;2022-07-23T09:21:33;3.20;;;1.62;;
48189;SDS011;33980;47.436;18.926;2022-07-23T09:24:07;4.18;;;1.40;;
48189;SDS011;33980;47.436;18.926;2022-07-23T09:26:37;3.28;;;1.37;;
48189;SDS011;33980;47.436;18.926;2022-07-23T09:29:19;3.33;;;1.90;;
48189;SDS011;33980;47.436;18.926;2022-07-23T09:31:55;3.80;;;1.60;;
48189;SDS011;33980;47.436;18.926;2022-07-23T09:34:26;2.87;;;1.40;;
48189;SDS011;33980;47.436;18.926;2022-07-23T09:37:08;3.92;;;1.70;;
48189;SDS011;33980;47.436;18.926;2022-07-23T09:39:41;2.55;;;1.60;;
48189;SDS011;33980;47.436;18.926;2022-07-23T09:44:45;3.50;;;1.85;;
48189;SDS011;33980;47.436;18.926;2022-07-23T09:47:19;3.50;;;1.60;;
48189;SDS011;33980;47.436;18.926;2022-07-23T09:49:59;3.37;;;1.60;;
48189;SDS011;33980;47.436;18.926;2022-07-23T09:52:28;6.18;;;2.05;;
48189;SDS011;33980;47.436;18.926;2022-07-23T09:55:05;4.57;;;2.03;;
48189;SDS011;33980;47.436;18.926;2022-07-23T09:57:34;4.25;;;2.28;;
48189;SDS011;33980;47.436;18.926;2022-07-23T10:00:09;3.20;;;1.85;;
48189;SDS011;33980;47.436;18.926;2022-07-23T10:02:41;7.12;;;2.03;;
48189;SDS011;33980;47.436;18.926;2022-07-23T10:05:18;3.78;;;1.73;;
48189;SDS011;33980;47.436;18.926;2022-07-23T10:07:51;3.05;;;1.50;;
48189;SDS011;33980;47.436;18.926;2022-07-23T10:10:29;3.03;;;1.48;;
48189;SDS011;33980;47.436;18.926;2022-07-23T10:13:05;3.25;;;1.67;;
48189;SDS011;33980;47.436;18.926;2022-07-23T10:15:51;3.83;;;1.90;;
48189;SDS011;33980;47.436;18.926;2022-07-23T10:18:20;3.75;;;2.00;;
48189;SDS011;33980;47.436;18.926;2022-07-23T10:20:51;3.47;;;1.95;;
48189;SDS011;33980;47.436;18.926;2022-07-23T10:23:22;4.78;;;1.85;;
48189;SDS011;33980;47.436;18.926;2022-07-23T10:25:58;6.10;;;1.95;;
48189;SDS011;33980;47.436;18.926;2022-07-23T10:31:41;4.10;;;1.20;;
48189;SDS011;33980;47.436;18.926;2022-07-23T10:34:33;2.75;;;1.37;;
48189;SDS011;33980;47.436;18.926;2022-07-23T10:39:48;2.85;;;1.65;;
48189;SDS011;33980;47.436;18.926;2022-07-23T10:42:38;2.28;;;1.15;;
48189;SDS011;33980;47.436;18.926;2022-07-23T10:45:24;4.47;;;1.77;;
48189;SDS011;33980;47.436;18.926;2022-07-23T10:48:11;3.00;;;1.48;;
48189;SDS011;33980;47.436;18.926;2022-07-23T10:53:54;1.48;;;1.12;;
48189;SDS011;33980;47.436;18.926;2022-07-23T10:56:49;3.12;;;1.65;;
48189;SDS011;33980;47.436;18.926;2022-07-23T10:59:19;2.50;;;1.55;;
48189;SDS011;33980;47.436;18.926;2022-07-23T11:01:49;2.83;;;1.62;;
48189;SDS011;33980;47.436;18.926;2022-07-23T11:04:22;3.30;;;1.62;;
48189;SDS011;33980;47.436;18.926;2022-07-23T11:07:22;15.93;;;2.10;;
48189;SDS011;33980;47.436;18.926;2022-07-23T11:12:33;3.67;;;1.95;;
48189;SDS011;33980;47.436;18.926;2022-07-23T11:15:08;3.92;;;1.73;;
48189;SDS011;33980;47.436;18.926;2022-07-23T11:17:38;3.12;;;1.48;;
48189;SDS011;33980;47.436;18.926;2022-07-23T11:20:23;2.97;;;1.60;;
48189;SDS011;33980;47.436;18.926;2022-07-23T11:22:52;2.40;;;1.60;;
48189;SDS011;33980;47.436;18.926;2022-07-23T11:25:33;7.00;;;1.80;;
48189;SDS011;33980;47.436;18.926;2022-07-23T11:28:08;3.90;;;1.80;;
48189;SDS011;33980;47.436;18.926;2022-07-23T11:30:43;2.67;;;1.60;;
48189;SDS011;33980;47.436;18.926;2022-07-23T11:33:17;2.87;;;1.67;;
48189;SDS011;33980;47.436;18.926;2022-07-23T11:35:59;3.25;;;1.60;;
48189;SDS011;33980;47.436;18.926;2022-07-23T11:38:32;4.47;;;1.98;;
48189;SDS011;33980;47.436;18.926;2022-07-23T11:41:01;3.15;;;1.77;;
48189;SDS011;33980;47.436;18.926;2022-07-23T11:43:30;5.45;;;1.75;;
48189;SDS011;33980;47.436;18.926;2022-07-23T11:46:02;3.62;;;1.65;;
48189;SDS011;33980;47.436;18.926;2022-07-23T11:48:31;4.22;;;1.77;;
48189;SDS011;33980;47.436;18.926;2022-07-23T11:51:08;3.00;;;1.77;;
48189;SDS011;33980;47.436;18.926;2022-07-23T11:53:42;6.50;;;1.95;;
48189;SDS011;33980;47.436;18.926;2022-07-23T11:56:13;3.50;;;1.77;;
48189;SDS011;33980;47.436;18.926;2022-07-23T11:58:53;3.10;;;1.77;;
48189;SDS011;33980;47.436;18.926;2022-07-23T12:01:27;4.82;;;1.80;;
48189;SDS011;33980;47.436;18.926;2022-07-23T12:03:56;2.90;;;1.73;;
48189;SDS011;33980;47.436;18.926;2022-07-23T12:06:46;3.55;;;1.42;;
48189;SDS011;33980;47.436;18.926;2022-07-23T12:09:15;5.68;;;1.87;;
48189;SDS011;33980;47.436;18.926;2022-07-23T12:11:56;5.30;;;2.33;;
48189;SDS011;33980;47.436;18.926;2022-07-23T12:14:25;5.00;;;1.87;;
48189;SDS011;33980;47.436;18.926;2022-07-23T12:17:06;3.28;;;1.98;;
48189;SDS011;33980;47.436;18.926;2022-07-23T12:19:42;4.03;;;1.80;;
48189;SDS011;33980;47.436;18.926;2022-07-23T12:22:14;2.72;;;1.55;;
48189;SDS011;33980;47.436;18.926;2022-07-23T12:25:00;3.62;;;2.03;;
48189;SDS011;33980;47.436;18.926;2022-07-23T12:27:31;4.10;;;1.98;;
48189;SDS011;33980;47.436;18.926;2022-07-23T12:33:01;3.95;;;1.70;;
48189;SDS011;33980;47.436;18.926;2022-07-23T12:35:35;3.33;;;1.70;;
48189;SDS011;33980;47.436;18.926;2022-07-23T12:38:10;3.55;;;1.90;;
48189;SDS011;33980;47.436;18.926;2022-07-23T12:40:47;5.57;;;2.37;;
48189;SDS011;33980;47.436;18.926;2022-07-23T12:43:21;4.37;;;1.87;;
48189;SDS011;33980;47.436;18.926;2022-07-23T12:48:30;2.95;;;1.67;;
48189;SDS011;33980;47.436;18.926;2022-07-23T12:51:02;3.08;;;1.70;;
48189;SDS011;33980;47.436;18.926;2022-07-23T12:53:38;5.85;;;2.22;;
48189;SDS011;33980;47.436;18.926;2022-07-23T12:56:13;4.85;;;1.98;;
48189;SDS011;33980;47.436;18.926;2022-07-23T12:58:51;2.20;;;1.50;;
48189;SDS011;33980;47.436;18.926;2022-07-23T13:01:24;4.40;;;2.03;;
48189;SDS011;33980;47.436;18.926;2022-07-23T13:03:55;1.50;;;1.08;;
48189;SDS011;33980;47.436;18.926;2022-07-23T13:06:25;2.10;;;1.35;;
48189;SDS011;33980;47.436;18.926;2022-07-23T13:08:57;2.55;;;1.60;;
48189;SDS011;33980;47.436;18.926;2022-07-23T13:11:28;4.07;;;1.87;;
48189;SDS011;33980;47.436;18.926;2022-07-23T13:13:57;5.10;;;2.23;;
48189;SDS011;33980;47.436;18.926;2022-07-23T13:16:27;2.22;;;1.40;;
48189;SDS011;33980;47.436;18.926;2022-07-23T13:18:59;4.18;;;1.98;;
48189;SDS011;33980;47.436;18.926;2022-07-23T13:21:29;4.70;;;1.85;;
48189;SDS011;33980;47.436;18.926;2022-07-23T13:24:01;2.55;;;1.35;;
48189;SDS011;33980;47.436;18.926;2022-07-23T13:26:35;5.62;;;2.45;;
48189;SDS011;33980;47.436;18.926;2022-07-23T13:29:08;3.12;;;1.83;;
48189;SDS011;33980;47.436;18.926;2022-07-23T13:34:14;3.20;;;1.80;;
48189;SDS011;33980;47.436;18.926;2022-07-23T13:36:42;5.22;;;2.12;;
48189;SDS011;33980;47.436;18.926;2022-07-23T13:39:34;4.55;;;2.15;;
48189;SDS011;33980;47.436;18.926;2022-07-23T13:44:40;11.30;;;2.75;;
48189;SDS011;33980;47.436;18.926;2022-07-23T13:47:13;5.47;;;2.05;;
48189;SDS011;33980;47.436;18.926;2022-07-23T13:49:42;3.55;;;1.83;;
48189;SDS011;33980;47.436;18.926;2022-07-23T13:54:55;3.37;;;1.85;;
48189;SDS011;33980;47.436;18.926;2022-07-23T13:57:24;5.55;;;2.22;;
48189;SDS011;33980;47.436;18.926;2022-07-23T13:59:53;8.20;;;1.40;;
48189;SDS011;33980;47.436;18.926;2022-07-23T14:02:29;4.53;;;2.05;;
48189;SDS011;33980;47.436;18.926;2022-07-23T14:05:00;5.95;;;2.03;;
48189;SDS011;33980;47.436;18.926;2022-07-23T14:07:31;9.18;;;2.00;;
48189;SDS011;33980;47.436;18.926;2022-07-23T14:10:17;5.55;;;2.25;;
48189;SDS011;33980;47.436;18.926;2022-07-23T14:12:50;3.75;;;1.92;;
48189;SDS011;33980;47.436;18.926;2022-07-23T14:15:19;4.85;;;2.08;;
48189;SDS011;33980;47.436;18.926;2022-07-23T14:17:50;3.20;;;1.80;;
48189;SDS011;33980;47.436;18.926;2022-07-23T14:20:20;3.45;;;2.10;;
48189;SDS011;33980;47.436;18.926;2022-07-23T14:22:51;3.20;;;1.92;;
48189;SDS011;33980;47.436;18.926;2022-07-23T14:25:25;3.67;;;1.92;;
48189;SDS011;33980;47.436;18.926;2022-07-23T14:27:56;3.55;;;1.92;;
48189;SDS011;33980;47.436;18.926;2022-07-23T14:30:26;2.92;;;1.83;;
48189;SDS011;33980;47.436;18.926;2022-07-23T14:33:01;2.40;;;1.48;;
48189;SDS011;33980;47.436;18.926;2022-07-23T14:35:33;2.67;;;1.70;;
48189;SDS011;33980;47.436;18.926;2022-07-23T14:38:02;5.55;;;1.80;;
48189;SDS011;33980;47.436;18.926;2022-07-23T14:40:35;5.10;;;1.77;;
48189;SDS011;33980;47.436;18.926;2022-07-23T14:43:03;3.10;;;1.50;;
48189;SDS011;33980;47.436;18.926;2022-07-23T14:45:36;3.42;;;1.95;;
48189;SDS011;33980;47.436;18.926;2022-07-23T14:48:05;3.95;;;1.73;;
48189;SDS011;33980;47.436;18.926;2022-07-23T14:50:39;3.75;;;1.92;;
48189;SDS011;33980;47.436;18.926;2022-07-23T14:53:09;3.47;;;1.60;;
48189;SDS011;33980;47.436;18.926;2022-07-23T14:55:46;2.62;;;1.58;;
48189;SDS011;33980;47.436;18.926;2022-07-23T14:58:16;5.18;;;1.90;;
48189;SDS011;33980;47.436;18.926;2022-07-23T15:00:45;3.22;;;1.98;;
48189;SDS011;33980;47.436;18.926;2022-07-23T15:03:15;3.87;;;2.33;;
48189;SDS011;33980;47.436;18.926;2022-07-23T15:06:09;5.20;;;2.45;;
48189;SDS011;33980;47.436;18.926;2022-07-23T15:08:39;3.95;;;2.37;;
48189;SDS011;33980;47.436;18.926;2022-07-23T15:11:15;7.12;;;3.62;;
48189;SDS011;33980;47.436;18.926;2022-07-23T15:13:44;6.87;;;3.42;;
48189;SDS011;33980;47.436;18.926;2022-07-23T15:16:16;8.10;;;3.87;;
48189;SDS011;33980;47.436;18.926;2022-07-23T15:18:47;7.37;;;4.15;;
48189;SDS011;33980;47.436;18.926;2022-07-23T15:21:18;8.15;;;4.68;;
48189;SDS011;33980;47.436;18.926;2022-07-23T15:23:47;7.45;;;4.25;;
48189;SDS011;33980;47.436;18.926;2022-07-23T15:26:18;6.53;;;4.22;;
48189;SDS011;33980;47.436;18.926;2022-07-23T15:28:49;8.55;;;3.53;;
48189;SDS011;33980;47.436;18.926;2022-07-23T15:31:18;10.80;;;3.53;;
48189;SDS011;33980;47.436;18.926;2022-07-23T15:33:47;9.63;;;4.43;;
48189;SDS011;33980;47.436;18.926;2022-07-23T15:36:19;9.55;;;4.00;;
48189;SDS011;33980;47.436;18.926;2022-07-23T15:38:49;6.47;;;3.43;;
48189;SDS011;33980;47.436;18.926;2022-07-23T15:41:20;7.35;;;3.53;;
48189;SDS011;33980;47.436;18.926;2022-07-23T15:43:54;14.95;;;3.75;;
48189;SDS011;33980;47.436;18.926;2022-07-23T15:46:23;6.60;;;3.90;;
48189;SDS011;33980;47.436;18.926;2022-07-23T15:48:53;6.07;;;3.40;;
48189;SDS011;33980;47.436;18.926;2022-07-23T15:51:25;9.90;;;3.67;;